Time;durP1;ratioP1;P1;durP2;ratioP2;P2;SDS_P1;SDS_P2;PMS_P1;PMS_P2;Temp;Humidity;BMP_temperature;BMP_pressure;BME280_temperature;BME280_humidity;BME280_pressure;Samples;Min_cycle;Max_cycle;Signal;HPM_P1;HPM_P2
2022/07/23 00:02:24;;;;;;;9.13;7.40;;;;;;;;;;5053326;28;20216;-78
2022/07/23 00:04:50;;;;;;;9.50;8.53;;;;;;;;;;5070206;28;20181;-78
2022/07/23 00:07:16;;;;;;;8.83;7.93;;;;;;;;;;5065969;28;20178;-78
2022/07/23 00:09:43;;;;;;;9.20;7.90;;;;;;;;;;5064547;28;20197;-78
2022/07/23 00:12:09;;;;;;;9.13;8.10;;;;;;;;;;5066676;28;20212;-78
2022/07/23 00:14:35;;;;;;;9.30;8.50;;;;;;;;;;5059288;28;20546;-79
2022/07/23 00:17:01;;;;;;;9.93;9.03;;;;;;;;;;5057987;28;20193;-78
2022/07/23 00:19:28;;;;;;;9.90;8.90;;;;;;;;;;5068572;28;20209;-78
2022/07/23 00:21:55;;;;;;;10.67;8.83;;;;;;;;;;5065031;28;20227;-79
2022/07/23 00:24:21;;;;;;;9.73;8.83;;;;;;;;;;5078529;28;20169;-78
2022/07/23 00:26:47;;;;;;;9.70;8.57;;;;;;;;;;5077601;28;20185;-78
2022/07/23 00:29:13;;;;;;;9.53;8.70;;;;;;;;;;5070517;28;20185;-78
2022/07/23 00:31:39;;;;;;;9.60;8.07;;;;;;;;;;5060834;28;20210;-78
2022/07/23 00:34:05;;;;;;;10.00;8.10;;;;;;;;;;5065703;28;20190;-78
2022/07/23 00:36:32;;;;;;;8.97;8.17;;;;;;;;;;5066613;28;20169;-78
2022/07/23 00:38:58;;;;;;;9.30;8.40;;;;;;;;;;5061123;28;20260;-78
2022/07/23 00:41:24;;;;;;;9.60;8.60;;;;;;;;;;5070636;28;20184;-79
2022/07/23 00:43:50;;;;;;;9.63;8.63;;;;;;;;;;5074903;28;20204;-79
2022/07/23 00:46:24;;;;;;;11.07;8.50;;;;;;;;;;5076265;28;20185;-78
2022/07/23 00:48:51;;;;;;;8.30;7.57;;;;;;;;;;5060415;28;20216;-79
2022/07/23 00:51:17;;;;;;;8.53;7.67;;;;;;;;;;5079553;28;20230;-79
2022/07/23 00:53:44;;;;;;;7.93;7.13;;;;;;;;;;5070389;28;20193;-78
2022/07/23 00:56:11;;;;;;;8.77;7.93;;;;;;;;;;5082456;28;20181;-78
2022/07/23 00:58:37;;;;;;;7.77;7.07;;;;;;;;;;5075828;28;20219;-78
2022/07/23 01:01:03;;;;;;;8.87;7.97;;;;;;;;;;5074392;28;20193;-79
2022/07/23 01:03:30;;;;;;;8.90;8.00;;;;;;;;;;5074958;28;20717;-79
2022/07/23 01:05:56;;;;;;;9.47;7.73;;;;;;;;;;5051840;28;20527;-78
2022/07/23 01:08:22;;;;;;;7.80;7.00;;;;;;;;;;5073954;28;20181;-78
2022/07/23 01:10:49;;;;;;;7.90;7.10;;;;;;;;;;5068919;28;20220;-78
2022/07/23 01:13:16;;;;;;;8.33;7.27;;;;;;;;;;5072040;28;20274;-78
2022/07/23 01:15:42;;;;;;;8.80;7.97;;;;;;;;;;5068791;28;20184;-78
2022/07/23 01:18:09;;;;;;;7.50;6.90;;;;;;;;;;5069667;28;20193;-78
2022/07/23 01:20:37;;;;;;;8.17;6.83;;;;;;;;;;5063557;28;20187;-78
2022/07/23 01:23:03;;;;;;;7.43;6.73;;;;;;;;;;5058794;28;20574;-79
2022/07/23 01:25:30;;;;;;;8.80;7.23;;;;;;;;;;5062022;28;20223;-78
2022/07/23 01:27:59;;;;;;;7.10;6.43;;;;;;;;;;5053395;28;20279;-78
2022/07/23 01:30:25;;;;;;;7.17;6.47;;;;;;;;;;5066907;28;20702;-80
2022/07/23 01:32:52;;;;;;;8.67;6.90;;;;;;;;;;5073324;28;20262;-78
2022/07/23 01:35:18;;;;;;;7.67;6.90;;;;;;;;;;5068664;28;20285;-78
2022/07/23 01:37:45;;;;;;;7.37;6.67;;;;;;;;;;5061184;28;20188;-78
2022/07/23 01:40:12;;;;;;;9.50;7.13;;;;;;;;;;5067223;28;20181;-79
2022/07/23 01:42:38;;;;;;;8.73;6.70;;;;;;;;;;5060889;28;20247;-78
2022/07/23 01:45:06;;;;;;;9.30;6.80;;;;;;;;;;5063094;28;20217;-78
2022/07/23 01:47:33;;;;;;;7.13;6.43;;;;;;;;;;5070278;28;20200;-78
2022/07/23 01:49:59;;;;;;;8.57;6.60;;;;;;;;;;5066937;28;20200;-78
2022/07/23 01:52:42;;;;;;;6.93;6.33;;;;;;;;;;5076175;28;20204;-78
2022/07/23 01:55:08;;;;;;;7.17;6.13;;;;;;;;;;5084321;28;20173;-78
2022/07/23 01:57:36;;;;;;;6.37;5.87;;;;;;;;;;5080270;28;20180;-79
2022/07/23 02:00:03;;;;;;;6.90;6.30;;;;;;;;;;5058293;28;20244;-78
2022/07/23 02:02:39;;;;;;;8.23;6.33;;;;;;;;;;5064963;28;20201;-78
2022/07/23 02:05:06;;;;;;;9.07;6.40;;;;;;;;;;5065967;28;20250;-79
2022/07/23 02:07:32;;;;;;;6.60;6.00;;;;;;;;;;5065598;28;20246;-78
2022/07/23 02:09:59;;;;;;;7.10;6.23;;;;;;;;;;5061757;28;20201;-78
2022/07/23 02:12:25;;;;;;;7.27;6.57;;;;;;;;;;5082555;28;20265;-78
2022/07/23 02:14:51;;;;;;;6.67;6.07;;;;;;;;;;5065428;28;20204;-79
2022/07/23 02:17:18;;;;;;;6.70;6.00;;;;;;;;;;5074460;28;20178;-79
2022/07/23 02:19:44;;;;;;;6.70;6.03;;;;;;;;;;5056353;28;20180;-78
2022/07/23 02:22:10;;;;;;;7.30;6.17;;;;;;;;;;5072824;28;20276;-78
2022/07/23 02:24:36;;;;;;;6.80;5.90;;;;;;;;;;5064355;28;20191;-78
2022/07/23 02:27:02;;;;;;;6.90;6.30;;;;;;;;;;5067769;28;20188;-78
2022/07/23 02:29:29;;;;;;;7.27;6.10;;;;;;;;;;5069424;28;20563;-79
2022/07/23 02:31:55;;;;;;;11.43;6.33;;;;;;;;;;5067543;28;20552;-78
2022/07/23 02:34:22;;;;;;;6.90;6.20;;;;;;;;;;5060343;28;20189;-78
2022/07/23 02:36:48;;;;;;;7.13;6.43;;;;;;;;;;5068942;28;20169;-78
2022/07/23 02:39:14;;;;;;;9.70;6.37;;;;;;;;;;5069558;28;20196;-79
2022/07/23 02:41:40;;;;;;;7.00;6.40;;;;;;;;;;5070046;28;20339;-79
2022/07/23 02:44:07;;;;;;;7.00;6.30;;;;;;;;;;5057799;28;20243;-78
2022/07/23 02:46:33;;;;;;;8.17;6.20;;;;;;;;;;5061710;28;20223;-78
2022/07/23 02:49:01;;;;;;;7.13;6.43;;;;;;;;;;5057750;28;20246;-79
2022/07/23 02:51:29;;;;;;;6.93;6.23;;;;;;;;;;5057073;28;20561;-78
2022/07/23 02:53:59;;;;;;;9.30;6.47;;;;;;;;;;5064965;28;20181;-79
2022/07/23 02:56:25;;;;;;;7.20;6.60;;;;;;;;;;5069479;28;20657;-79
2022/07/23 02:58:51;;;;;;;7.20;6.60;;;;;;;;;;5057987;28;20186;-78
2022/07/23 03:01:18;;;;;;;6.70;6.10;;;;;;;;;;5066542;28;20212;-78
2022/07/23 03:03:45;;;;;;;6.93;6.30;;;;;;;;;;5055478;28;20231;-79
2022/07/23 03:06:11;;;;;;;7.00;6.40;;;;;;;;;;5049430;28;20551;-79
2022/07/23 03:08:39;;;;;;;7.53;6.87;;;;;;;;;;5052882;28;20197;-78
2022/07/23 03:11:10;;;;;;;7.27;6.57;;;;;;;;;;5069659;28;20216;-78
2022/07/23 03:13:38;;;;;;;6.60;6.00;;;;;;;;;;5049323;28;20204;-78
2022/07/23 03:16:04;;;;;;;7.17;6.50;;;;;;;;;;5068243;28;20665;-78
2022/07/23 03:18:31;;;;;;;7.03;6.43;;;;;;;;;;5069036;28;20173;-78
2022/07/23 03:20:57;;;;;;;6.63;6.00;;;;;;;;;;5065537;28;20194;-78
2022/07/23 03:23:23;;;;;;;7.20;6.50;;;;;;;;;;5050318;28;20201;-78
2022/07/23 03:25:49;;;;;;;7.50;6.63;;;;;;;;;;5056713;28;20186;-78
2022/07/23 03:28:16;;;;;;;8.17;6.53;;;;;;;;;;5066888;28;20181;-79
2022/07/23 03:30:48;;;;;;;9.60;7.03;;;;;;;;;;5059477;28;20193;-78
2022/07/23 03:33:16;;;;;;;6.80;6.20;;;;;;;;;;5084818;28;20588;-79
2022/07/23 03:35:43;;;;;;;7.20;6.50;;;;;;;;;;5071572;28;20205;-79
2022/07/23 03:38:17;;;;;;;6.83;6.20;;;;;;;;;;5061028;28;20181;-78
2022/07/23 03:40:43;;;;;;;7.20;6.50;;;;;;;;;;5066127;28;20177;-78
2022/07/23 03:43:09;;;;;;;7.13;6.43;;;;;;;;;;5063047;28;20606;-78
2022/07/23 03:45:35;;;;;;;7.37;6.67;;;;;;;;;;5069257;28;20184;-78
2022/07/23 03:48:01;;;;;;;7.90;7.20;;;;;;;;;;5065615;28;20177;-78
2022/07/23 03:50:29;;;;;;;8.73;7.17;;;;;;;;;;5063749;28;20181;-78
2022/07/23 03:52:56;;;;;;;8.20;7.40;;;;;;;;;;5060430;28;20217;-78
2022/07/23 03:55:22;;;;;;;8.33;7.43;;;;;;;;;;5066808;28;20192;-78
2022/07/23 03:57:48;;;;;;;8.03;7.23;;;;;;;;;;5071454;28;20256;-78
2022/07/23 04:00:15;;;;;;;8.67;7.37;;;;;;;;;;5070656;28;20563;-78
2022/07/23 04:02:42;;;;;;;7.73;6.93;;;;;;;;;;5092438;28;20239;-78
2022/07/23 04:05:11;;;;;;;9.07;7.13;;;;;;;;;;5069785;28;20702;-78
2022/07/23 04:07:38;;;;;;;8.47;7.60;;;;;;;;;;5079830;28;20288;-78
2022/07/23 04:10:05;;;;;;;9.10;8.20;;;;;;;;;;5077878;28;20201;-78
2022/07/23 04:12:32;;;;;;;8.83;7.93;;;;;;;;;;5083840;28;20689;-78
2022/07/23 04:14:58;;;;;;;11.67;8.00;;;;;;;;;;5050381;28;20233;-79
2022/07/23 04:17:25;;;;;;;8.07;7.27;;;;;;;;;;5071556;28;20260;-78
2022/07/23 04:19:51;;;;;;;8.07;7.27;;;;;;;;;;5060274;28;20759;-78
2022/07/23 04:22:22;;;;;;;7.77;6.97;;;;;;;;;;5075986;28;20218;-79
2022/07/23 04:24:49;;;;;;;9.63;7.67;;;;;;;;;;5066445;28;20189;-79
2022/07/23 04:27:15;;;;;;;9.10;6.53;;;;;;;;;;5068702;28;20182;-78
2022/07/23 04:29:41;;;;;;;8.00;7.20;;;;;;;;;;5073583;28;20188;-78
2022/07/23 04:32:07;;;;;;;8.20;7.40;;;;;;;;;;5078392;28;20685;-78
2022/07/23 04:34:34;;;;;;;8.07;7.30;;;;;;;;;;5071101;28;20205;-78
2022/07/23 04:37:00;;;;;;;8.07;7.37;;;;;;;;;;5068602;28;20259;-79
2022/07/23 04:39:29;;;;;;;8.40;7.60;;;;;;;;;;5052013;28;20184;-79
2022/07/23 04:41:55;;;;;;;7.70;7.00;;;;;;;;;;5062137;28;20214;-78
2022/07/23 04:44:21;;;;;;;7.43;6.63;;;;;;;;;;5067761;28;20186;-78
2022/07/23 04:46:48;;;;;;;7.50;6.80;;;;;;;;;;5064151;28;20208;-78
2022/07/23 04:49:14;;;;;;;7.27;6.67;;;;;;;;;;5066487;28;20257;-78
2022/07/23 04:51:41;;;;;;;9.53;7.00;;;;;;;;;;5073404;28;20270;-79
2022/07/23 04:54:07;;;;;;;7.43;6.73;;;;;;;;;;5069866;28;20541;-79
2022/07/23 04:56:34;;;;;;;7.70;6.83;;;;;;;;;;5058384;28;20189;-78
2022/07/23 04:59:00;;;;;;;7.80;7.00;;;;;;;;;;5072867;28;20315;-78
2022/07/23 05:01:26;;;;;;;9.33;8.17;;;;;;;;;;5070826;28;20185;-79
2022/07/23 05:03:53;;;;;;;8.50;7.70;;;;;;;;;;5051166;28;20262;-78
2022/07/23 05:06:19;;;;;;;8.47;7.67;;;;;;;;;;5058950;28;20173;-78
2022/07/23 05:08:46;;;;;;;7.60;6.90;;;;;;;;;;5059637;28;20182;-78
2022/07/23 05:11:12;;;;;;;8.60;7.70;;;;;;;;;;5065671;28;20200;-78
2022/07/23 05:13:39;;;;;;;8.50;7.70;;;;;;;;;;5071504;28;20209;-78
2022/07/23 05:16:07;;;;;;;8.30;7.50;;;;;;;;;;5064660;28;20178;-78
2022/07/23 05:18:33;;;;;;;8.40;7.63;;;;;;;;;;5062244;28;20182;-78
2022/07/23 05:21:00;;;;;;;8.37;7.57;;;;;;;;;;5055326;28;20189;-79
2022/07/23 05:23:26;;;;;;;8.00;7.20;;;;;;;;;;5051048;28;20240;-78
2022/07/23 05:25:53;;;;;;;8.90;8.00;;;;;;;;;;5064250;28;20185;-78
2022/07/23 05:28:20;;;;;;;8.40;7.60;;;;;;;;;;5065262;28;20540;-78
2022/07/23 05:30:46;;;;;;;9.90;8.43;;;;;;;;;;5050381;28;20186;-78
2022/07/23 05:33:16;;;;;;;9.63;8.60;;;;;;;;;;5051080;28;20197;-78
2022/07/23 05:35:42;;;;;;;9.77;8.93;;;;;;;;;;5050999;28;20792;-78
2022/07/23 05:38:28;;;;;;;10.67;9.67;;;;;;;;;;5065026;28;20275;-79
2022/07/23 05:40:58;;;;;;;10.50;8.53;;;;;;;;;;5075999;28;20181;-78
2022/07/23 05:43:24;;;;;;;10.67;9.57;;;;;;;;;;5062886;28;20216;-78
2022/07/23 05:45:50;;;;;;;10.87;9.77;;;;;;;;;;5065985;28;20179;-78
2022/07/23 05:48:16;;;;;;;9.80;8.83;;;;;;;;;;5076392;28;20712;-78
2022/07/23 05:50:55;;;;;;;10.87;9.77;;;;;;;;;;5087279;28;20176;-78
2022/07/23 05:53:32;;;;;;;11.10;10.03;;;;;;;;;;5065736;28;20216;-78
2022/07/23 05:56:04;;;;;;;10.77;9.67;;;;;;;;;;5062094;28;20174;-78
2022/07/23 05:58:31;;;;;;;10.50;9.40;;;;;;;;;;5050589;28;20231;-78
2022/07/23 06:00:57;;;;;;;11.10;9.87;;;;;;;;;;5060678;28;20182;-78
2022/07/23 06:03:25;;;;;;;11.60;10.40;;;;;;;;;;5056056;28;20216;-78
2022/07/23 06:05:51;;;;;;;10.70;9.43;;;;;;;;;;5055886;28;20185;-78
2022/07/23 06:08:17;;;;;;;10.83;9.70;;;;;;;;;;5070365;28;20177;-79
2022/07/23 06:10:44;;;;;;;10.73;9.17;;;;;;;;;;5065968;28;20276;-78
2022/07/23 06:13:10;;;;;;;8.77;7.90;;;;;;;;;;5060625;28;20247;-78
2022/07/23 06:15:36;;;;;;;13.27;8.87;;;;;;;;;;5079487;28;20616;-78
2022/07/23 06:18:02;;;;;;;10.23;9.03;;;;;;;;;;5053110;28;20178;-78
2022/07/23 06:20:29;;;;;;;9.93;8.93;;;;;;;;;;5061319;28;20631;-78
2022/07/23 06:22:57;;;;;;;9.73;8.23;;;;;;;;;;5063682;28;20204;-78
2022/07/23 06:25:23;;;;;;;11.17;8.97;;;;;;;;;;5065084;28;20192;-78
2022/07/23 06:27:50;;;;;;;10.47;9.40;;;;;;;;;;5081307;28;20672;-78
2022/07/23 06:30:17;;;;;;;9.33;8.47;;;;;;;;;;5060901;28;20184;-78
2022/07/23 06:32:44;;;;;;;10.13;9.13;;;;;;;;;;5065322;28;20201;-78
2022/07/23 06:35:10;;;;;;;10.60;9.50;;;;;;;;;;5056548;28;20186;-78
2022/07/23 06:37:36;;;;;;;9.83;8.93;;;;;;;;;;5063156;28;20182;-78
2022/07/23 06:40:04;;;;;;;10.60;9.50;;;;;;;;;;5041720;28;20181;-78
2022/07/23 06:42:30;;;;;;;9.73;8.77;;;;;;;;;;5061008;28;20200;-78
2022/07/23 06:44:58;;;;;;;10.27;9.27;;;;;;;;;;5063906;28;20765;-79
2022/07/23 06:47:25;;;;;;;12.07;9.97;;;;;;;;;;5081037;28;20196;-79
2022/07/23 06:49:51;;;;;;;10.30;9.20;;;;;;;;;;5058015;28;20520;-78
2022/07/23 06:52:17;;;;;;;10.67;9.53;;;;;;;;;;5066312;28;20216;-78
2022/07/23 06:54:43;;;;;;;10.47;9.47;;;;;;;;;;5067702;28;20191;-76
2022/07/23 06:57:09;;;;;;;11.33;10.13;;;;;;;;;;5071508;28;20177;-77
2022/07/23 06:59:40;;;;;;;11.23;10.13;;;;;;;;;;5064739;28;20546;-81
2022/07/23 07:02:07;;;;;;;11.03;9.93;;;;;;;;;;5073326;28;20565;-77
2022/07/23 07:04:33;;;;;;;10.80;9.80;;;;;;;;;;5065010;28;20296;-78
2022/07/23 07:06:59;;;;;;;11.10;9.50;;;;;;;;;;5071700;28;20705;-79
2022/07/23 07:09:25;;;;;;;12.07;10.93;;;;;;;;;;5075491;28;20188;-77
2022/07/23 07:11:52;;;;;;;10.17;9.17;;;;;;;;;;5085145;28;20216;-78
2022/07/23 07:14:18;;;;;;;10.40;9.40;;;;;;;;;;5078332;28;20181;-78
2022/07/23 07:16:44;;;;;;;10.13;9.13;;;;;;;;;;5070626;28;20235;-78
2022/07/23 07:19:10;;;;;;;9.97;9.07;;;;;;;;;;5069632;28;20177;-78
2022/07/23 07:21:36;;;;;;;10.53;9.53;;;;;;;;;;5066234;28;20177;-78
2022/07/23 07:24:02;;;;;;;10.60;9.50;;;;;;;;;;5072707;28;20177;-78
2022/07/23 07:26:30;;;;;;;12.87;9.90;;;;;;;;;;5066103;28;20200;-78
2022/07/23 07:28:57;;;;;;;11.63;8.97;;;;;;;;;;5077020;28;20734;-78
2022/07/23 07:31:23;;;;;;;10.00;9.00;;;;;;;;;;5078913;28;20279;-78
2022/07/23 07:33:49;;;;;;;43.90;11.17;;;;;;;;;;5069349;28;20658;-78
2022/07/23 07:36:15;;;;;;;9.43;8.53;;;;;;;;;;5073085;28;20172;-78
2022/07/23 07:38:41;;;;;;;10.03;8.90;;;;;;;;;;5067549;28;20646;-76
2022/07/23 07:41:09;;;;;;;13.30;9.93;;;;;;;;;;5066251;28;20504;-77
2022/07/23 07:43:36;;;;;;;10.37;8.50;;;;;;;;;;5067647;28;20207;-77
2022/07/23 07:46:03;;;;;;;10.27;9.20;;;;;;;;;;5067328;28;20272;-78
2022/07/23 07:48:29;;;;;;;7.90;7.20;;;;;;;;;;5066069;28;20181;-77
2022/07/23 07:50:55;;;;;;;10.20;7.40;;;;;;;;;;5077597;28;20196;-77
2022/07/23 07:53:22;;;;;;;8.13;7.03;;;;;;;;;;5065062;28;20209;-77
2022/07/23 07:55:48;;;;;;;8.00;6.57;;;;;;;;;;5072156;28;20238;-79
2022/07/23 07:58:14;;;;;;;7.33;5.93;;;;;;;;;;5067237;28;20196;-78
2022/07/23 08:00:40;;;;;;;8.43;7.37;;;;;;;;;;5062397;28;20170;-78
2022/07/23 08:03:07;;;;;;;8.40;7.60;;;;;;;;;;5072019;28;21310;-77
2022/07/23 08:05:33;;;;;;;7.97;7.20;;;;;;;;;;5072715;28;20220;-78
2022/07/23 08:07:59;;;;;;;8.10;7.30;;;;;;;;;;5063428;28;20209;-78
2022/07/23 08:10:26;;;;;;;8.03;7.20;;;;;;;;;;5065005;28;20204;-76
2022/07/23 08:12:53;;;;;;;7.90;7.10;;;;;;;;;;5061705;28;20255;-79
2022/07/23 08:15:20;;;;;;;10.30;7.20;;;;;;;;;;5065833;28;20182;-77
2022/07/23 08:17:47;;;;;;;10.47;7.20;;;;;;;;;;5070222;28;20182;-77
2022/07/23 08:20:15;;;;;;;8.60;7.10;;;;;;;;;;5061768;28;20273;-76
2022/07/23 08:22:42;;;;;;;7.87;6.90;;;;;;;;;;5043492;28;20205;-77
2022/07/23 08:25:09;;;;;;;10.63;7.53;;;;;;;;;;5064579;28;20258;-76
2022/07/23 08:27:35;;;;;;;7.97;7.17;;;;;;;;;;5061768;28;20182;-76
2022/07/23 08:30:01;;;;;;;7.33;6.73;;;;;;;;;;5066662;28;20249;-76
2022/07/23 08:32:27;;;;;;;7.47;6.70;;;;;;;;;;5069926;28;20208;-76
2022/07/23 08:34:53;;;;;;;7.63;6.93;;;;;;;;;;5072834;28;20181;-76
2022/07/23 08:37:19;;;;;;;7.60;6.80;;;;;;;;;;5069568;28;20173;-75
2022/07/23 08:39:46;;;;;;;7.70;6.90;;;;;;;;;;5071620;28;20185;-73
2022/07/23 08:42:14;;;;;;;8.13;7.33;;;;;;;;;;5061790;28;20198;-73
2022/07/23 08:44:43;;;;;;;7.40;6.50;;;;;;;;;;5058009;28;20642;-73
2022/07/23 08:47:09;;;;;;;7.13;6.43;;;;;;;;;;5078656;28;20188;-73
2022/07/23 08:49:35;;;;;;;8.40;6.93;;;;;;;;;;5076268;28;20239;-73
2022/07/23 08:52:02;;;;;;;7.80;7.00;;;;;;;;;;5066007;28;20228;-73
2022/07/23 08:54:28;;;;;;;7.20;6.50;;;;;;;;;;5067948;28;20173;-73
2022/07/23 08:56:54;;;;;;;7.70;7.00;;;;;;;;;;5072424;28;20205;-73
2022/07/23 08:59:20;;;;;;;6.80;6.20;;;;;;;;;;5070433;28;20534;-73
2022/07/23 09:01:47;;;;;;;7.50;6.80;;;;;;;;;;5075599;28;20195;-73
2022/07/23 09:04:13;;;;;;;8.07;7.27;;;;;;;;;;5068414;28;20188;-73
2022/07/23 09:06:40;;;;;;;7.50;6.80;;;;;;;;;;5062930;28;20184;-73
2022/07/23 09:09:19;;;;;;;8.03;7.20;;;;;;;;;;5060522;28;20228;-73
2022/07/23 09:11:49;;;;;;;7.20;6.50;;;;;;;;;;5061902;28;20226;-73
2022/07/23 09:14:15;;;;;;;10.03;7.97;;;;;;;;;;5063856;28;20178;-74
2022/07/23 09:16:41;;;;;;;7.90;7.20;;;;;;;;;;5080477;28;20169;-74
2022/07/23 09:19:07;;;;;;;8.07;6.50;;;;;;;;;;5043975;28;20194;-74
2022/07/23 09:21:38;;;;;;;7.63;6.93;;;;;;;;;;5063228;28;20224;-73
2022/07/23 09:24:05;;;;;;;7.60;6.90;;;;;;;;;;5063262;28;20193;-74
2022/07/23 09:26:38;;;;;;;7.70;7.00;;;;;;;;;;5069493;28;20652;-77
2022/07/23 09:29:07;;;;;;;7.60;6.90;;;;;;;;;;5068564;28;20200;-77
2022/07/23 09:31:35;;;;;;;7.53;6.83;;;;;;;;;;5063300;28;20204;-77
2022/07/23 09:34:11;;;;;;;7.60;6.90;;;;;;;;;;5073262;28;20169;-77
2022/07/23 09:36:38;;;;;;;8.10;7.30;;;;;;;;;;5045603;28;20780;-77
2022/07/23 09:39:05;;;;;;;8.20;7.33;;;;;;;;;;5063347;28;20620;-77
2022/07/23 09:41:36;;;;;;;7.13;6.40;;;;;;;;;;5063132;28;20197;-77
2022/07/23 09:44:09;;;;;;;7.37;6.73;;;;;;;;;;5069746;28;20185;-77
2022/07/23 09:46:35;;;;;;;7.30;6.60;;;;;;;;;;5069527;28;20554;-77
2022/07/23 09:49:10;;;;;;;9.10;6.73;;;;;;;;;;5067450;28;20191;-77
2022/07/23 09:51:44;;;;;;;7.27;6.67;;;;;;;;;;5049380;28;20273;-77
2022/07/23 09:54:21;;;;;;;7.33;6.63;;;;;;;;;;5068620;28;20675;-77
2022/07/23 09:56:48;;;;;;;7.47;6.57;;;;;;;;;;5068807;28;20676;-77
2022/07/23 09:59:17;;;;;;;7.43;6.73;;;;;;;;;;5067368;28;20193;-77
2022/07/23 10:01:44;;;;;;;7.07;6.47;;;;;;;;;;5068579;28;20189;-77
2022/07/23 10:04:11;;;;;;;7.00;6.40;;;;;;;;;;5065175;28;20188;-75
2022/07/23 10:07:04;;;;;;;7.93;7.13;;;;;;;;;;5058091;28;20267;-77
2022/07/23 10:09:52;;;;;;;8.13;7.40;;;;;;;;;;5066890;28;20196;-78
2022/07/23 10:15:20;;;;;;;8.23;7.53;;;;;;;;;;5069752;28;20184;-81
2022/07/23 10:17:46;;;;;;;8.57;7.57;;;;;;;;;;5078950;28;20205;-78
2022/07/23 10:20:12;;;;;;;7.77;7.07;;;;;;;;;;5061907;28;20223;-80
2022/07/23 10:22:48;;;;;;;8.47;7.67;;;;;;;;;;5059504;28;20268;-77
2022/07/23 10:25:33;;;;;;;9.13;8.30;;;;;;;;;;5063326;28;20260;-79
2022/07/23 10:28:08;;;;;;;8.60;7.67;;;;;;;;;;5061776;28;20177;-78
2022/07/23 10:30:52;;;;;;;8.63;7.83;;;;;;;;;;5059923;28;20214;-79
2022/07/23 10:33:27;;;;;;;7.50;6.87;;;;;;;;;;5070630;28;20216;-83
2022/07/23 10:36:18;;;;;;;7.83;7.20;;;;;;;;;;5059591;28;20352;-82
2022/07/23 10:39:05;;;;;;;8.40;7.70;;;;;;;;;;5068082;28;20207;-78
2022/07/23 10:41:32;;;;;;;9.03;7.63;;;;;;;;;;5064164;28;20185;-82
2022/07/23 10:44:07;;;;;;;8.80;7.67;;;;;;;;;;5067640;28;20180;-81
2022/07/23 10:46:41;;;;;;;8.67;7.77;;;;;;;;;;5068841;28;20413;-81
2022/07/23 10:49:36;;;;;;;8.23;7.50;;;;;;;;;;5045225;28;20208;-82
2022/07/23 10:52:15;;;;;;;8.40;7.60;;;;;;;;;;5050123;28;20221;-79
2022/07/23 10:54:41;;;;;;;7.90;7.20;;;;;;;;;;5056913;28;20236;-79
2022/07/23 10:57:08;;;;;;;8.30;7.20;;;;;;;;;;5074604;28;20269;-78
2022/07/23 10:59:53;;;;;;;8.20;7.50;;;;;;;;;;5070805;28;20188;-81
2022/07/23 11:02:23;;;;;;;9.10;8.20;;;;;;;;;;5069630;28;20199;-80
2022/07/23 11:04:50;;;;;;;8.00;7.30;;;;;;;;;;5058265;28;20320;-83
2022/07/23 11:07:17;;;;;;;8.50;7.73;;;;;;;;;;5064105;28;20170;-83
2022/07/23 11:09:45;;;;;;;7.20;6.60;;;;;;;;;;5057390;28;20194;-81
2022/07/23 11:12:21;;;;;;;7.83;7.03;;;;;;;;;;5061736;28;20296;-81
2022/07/23 11:15:02;;;;;;;9.67;7.20;;;;;;;;;;5066150;28;20197;-80
2022/07/23 11:17:28;;;;;;;8.87;8.07;;;;;;;;;;5062027;28;20216;-80
2022/07/23 11:20:15;;;;;;;9.20;8.40;;;;;;;;;;5073691;28;20286;-80
2022/07/23 11:22:44;;;;;;;8.70;7.90;;;;;;;;;;5061241;28;20598;-80
2022/07/23 11:25:11;;;;;;;8.30;7.50;;;;;;;;;;5063354;28;20198;-81
2022/07/23 11:27:45;;;;;;;8.70;7.80;;;;;;;;;;5069153;28;20215;-82
2022/07/23 11:30:32;;;;;;;8.10;7.40;;;;;;;;;;5046867;28;20838;-81
2022/07/23 11:33:07;;;;;;;8.60;7.70;;;;;;;;;;5067466;28;20239;-80
2022/07/23 11:35:33;;;;;;;8.17;7.47;;;;;;;;;;5062671;28;20187;-81
2022/07/23 11:38:26;;;;;;;7.57;6.97;;;;;;;;;;5059473;28;20269;-77
2022/07/23 11:40:54;;;;;;;7.90;7.13;;;;;;;;;;5057024;28;20223;-81
2022/07/23 11:43:20;;;;;;;7.90;7.20;;;;;;;;;;5075866;28;20284;-82
2022/07/23 11:45:48;;;;;;;8.30;7.53;;;;;;;;;;5078085;28;20559;-81
2022/07/23 11:48:20;;;;;;;8.53;7.83;;;;;;;;;;5065591;28;20177;-80
2022/07/23 11:50:46;;;;;;;9.27;7.70;;;;;;;;;;5069113;28;20293;-81
2022/07/23 11:53:13;;;;;;;7.87;7.17;;;;;;;;;;5059666;28;20242;-82
2022/07/23 11:55:39;;;;;;;8.47;7.47;;;;;;;;;;5065133;28;20184;-82
2022/07/23 11:58:05;;;;;;;8.00;7.30;;;;;;;;;;5072620;28;20166;-83
2022/07/23 12:00:32;;;;;;;7.40;6.80;;;;;;;;;;5092204;28;20638;-83
2022/07/23 12:03:00;;;;;;;7.30;6.60;;;;;;;;;;5073468;28;20905;-82
2022/07/23 12:05:29;;;;;;;7.53;6.80;;;;;;;;;;5063366;28;20189;-84
2022/07/23 12:07:56;;;;;;;7.63;6.93;;;;;;;;;;5054506;28;20204;-83
2022/07/23 12:10:30;;;;;;;8.00;7.33;;;;;;;;;;5061767;28;20229;-82
2022/07/23 12:13:07;;;;;;;7.47;6.87;;;;;;;;;;5078202;28;20235;-81
2022/07/23 12:15:38;;;;;;;7.40;6.53;;;;;;;;;;5064583;28;20177;-82
2022/07/23 12:18:04;;;;;;;7.50;6.90;;;;;;;;;;5076155;28;20198;-81
2022/07/23 12:20:32;;;;;;;7.30;6.60;;;;;;;;;;5070854;28;20188;-82
2022/07/23 12:23:00;;;;;;;8.17;7.47;;;;;;;;;;5082332;28;20194;-81
2022/07/23 12:25:27;;;;;;;6.57;5.93;;;;;;;;;;5064541;28;20198;-81
2022/07/23 12:28:01;;;;;;;7.33;6.63;;;;;;;;;;5073519;28;20239;-81
2022/07/23 12:30:29;;;;;;;7.90;7.10;;;;;;;;;;5063392;28;20187;-81
2022/07/23 12:32:56;;;;;;;8.33;6.87;;;;;;;;;;5062532;28;20215;-81
2022/07/23 12:35:23;;;;;;;8.30;6.87;;;;;;;;;;5080367;28;20188;-84
2022/07/23 12:37:55;;;;;;;7.83;7.10;;;;;;;;;;5085288;28;20172;-82
2022/07/23 12:40:22;;;;;;;7.10;6.47;;;;;;;;;;5065263;28;20177;-81
2022/07/23 12:42:49;;;;;;;7.50;6.77;;;;;;;;;;5069412;28;20715;-82
2022/07/23 12:45:16;;;;;;;8.00;7.20;;;;;;;;;;5071116;28;20186;-79
2022/07/23 12:47:59;;;;;;;7.57;6.87;;;;;;;;;;5061682;28;20190;-82
2022/07/23 12:50:32;;;;;;;6.80;6.20;;;;;;;;;;5040324;28;20604;-83
2022/07/23 12:53:05;;;;;;;7.33;6.73;;;;;;;;;;5065820;28;20258;-82
2022/07/23 12:55:31;;;;;;;6.80;6.10;;;;;;;;;;5064781;28;20180;-82
2022/07/23 12:58:08;;;;;;;6.93;6.33;;;;;;;;;;5074945;28;20586;-82
2022/07/23 13:00:50;;;;;;;7.07;6.57;;;;;;;;;;5068976;28;20186;-85
2022/07/23 13:03:27;;;;;;;9.97;7.00;;;;;;;;;;5073837;28;20874;-80
2022/07/23 13:05:53;;;;;;;7.60;7.00;;;;;;;;;;5069969;28;20182;-87
2022/07/23 13:08:19;;;;;;;7.73;6.83;;;;;;;;;;5074923;28;20192;-82
2022/07/23 13:10:50;;;;;;;7.43;6.77;;;;;;;;;;5061156;28;20283;-82
2022/07/23 13:13:17;;;;;;;7.87;6.40;;;;;;;;;;5058775;28;20255;-82
2022/07/23 13:15:44;;;;;;;8.70;6.30;;;;;;;;;;5071932;28;20215;-82
2022/07/23 13:18:10;;;;;;;6.97;6.47;;;;;;;;;;5071865;28;20189;-82
2022/07/23 13:20:38;;;;;;;7.13;6.43;;;;;;;;;;5084507;28;20203;-82
2022/07/23 13:23:05;;;;;;;6.77;6.13;;;;;;;;;;5080224;28;21243;-82
2022/07/23 13:25:31;;;;;;;6.87;6.37;;;;;;;;;;5066380;28;20203;-78
2022/07/23 13:27:57;;;;;;;7.80;7.10;;;;;;;;;;5064334;28;20184;-78
2022/07/23 13:30:23;;;;;;;7.10;6.50;;;;;;;;;;5063566;28;20187;-83
2022/07/23 13:32:50;;;;;;;8.37;6.57;;;;;;;;;;5063597;28;20218;-83
2022/07/23 13:35:16;;;;;;;7.40;6.70;;;;;;;;;;5068631;28;20222;-83
2022/07/23 13:37:42;;;;;;;6.60;6.07;;;;;;;;;;5063047;28;20253;-83
2022/07/23 13:40:09;;;;;;;7.30;6.70;;;;;;;;;;5050428;28;20186;-83
2022/07/23 13:42:35;;;;;;;7.30;6.60;;;;;;;;;;5058336;28;20291;-83
2022/07/23 13:45:01;;;;;;;7.20;6.60;;;;;;;;;;5068707;28;20200;-83
2022/07/23 13:47:27;;;;;;;6.97;6.47;;;;;;;;;;5070504;28;20177;-83
2022/07/23 13:49:53;;;;;;;6.87;6.23;;;;;;;;;;5068477;28;20182;-83
2022/07/23 13:52:20;;;;;;;7.13;6.50;;;;;;;;;;5069595;28;20224;-83
2022/07/23 13:54:46;;;;;;;7.30;6.60;;;;;;;;;;5063008;28;20251;-83
2022/07/23 13:57:12;;;;;;;7.43;6.57;;;;;;;;;;5066079;28;20185;-83
2022/07/23 13:59:38;;;;;;;7.63;6.50;;;;;;;;;;5056087;28;20199;-83
2022/07/23 14:02:05;;;;;;;7.27;6.73;;;;;;;;;;5070396;28;20598;-84
2022/07/23 14:04:32;;;;;;;7.00;6.40;;;;;;;;;;5065365;28;20188;-81
2022/07/23 14:06:58;;;;;;;6.23;5.73;;;;;;;;;;5063228;28;20682;-82
2022/07/23 14:09:24;;;;;;;6.27;5.77;;;;;;;;;;5071803;28;20588;-83
2022/07/23 14:11:50;;;;;;;6.60;6.00;;;;;;;;;;5064069;28;20688;-83
2022/07/23 14:14:17;;;;;;;6.27;5.77;;;;;;;;;;5065847;28;20183;-83
2022/07/23 14:16:44;;;;;;;5.50;5.00;;;;;;;;;;5071656;28;20184;-83
2022/07/23 14:19:10;;;;;;;6.47;5.43;;;;;;;;;;5071419;28;20175;-82
2022/07/23 14:21:37;;;;;;;5.57;5.17;;;;;;;;;;5068694;28;21202;-81
2022/07/23 14:24:04;;;;;;;5.90;5.50;;;;;;;;;;5076407;28;20184;-81
2022/07/23 14:26:30;;;;;;;5.87;5.37;;;;;;;;;;5074130;28;20185;-81
2022/07/23 14:28:56;;;;;;;6.40;5.80;;;;;;;;;;5073670;28;20187;-81
2022/07/23 14:31:23;;;;;;;5.90;5.47;;;;;;;;;;5071629;28;20786;-81
2022/07/23 14:33:49;;;;;;;6.40;5.90;;;;;;;;;;5072077;28;20681;-81
2022/07/23 14:36:15;;;;;;;6.20;5.60;;;;;;;;;;5070249;28;20294;-81
2022/07/23 14:38:42;;;;;;;5.70;5.30;;;;;;;;;;5073018;28;20173;-81
2022/07/23 14:41:09;;;;;;;6.63;5.70;;;;;;;;;;5068744;28;20186;-81
2022/07/23 14:43:35;;;;;;;5.97;5.47;;;;;;;;;;5070065;28;20245;-81
2022/07/23 14:46:01;;;;;;;5.50;5.00;;;;;;;;;;5068888;28;20188;-81
2022/07/23 14:48:28;;;;;;;6.00;5.50;;;;;;;;;;5073493;28;20208;-81
2022/07/23 14:50:54;;;;;;;6.00;5.50;;;;;;;;;;5076558;28;20196;-81